Time,TemperatureF,DewpointF,PressureIn,WindDirection,WindDirectionDegrees,WindSpeedMPH,WindSpeedGustMPH,Humidity,HourlyPrecipIn,Conditions,Clouds,dailyrainin,SoftwareType,DateUTC
2013-06-20 00:11:00,42.0,36.0,30.06,NNW,346,0.0,3.0,80,0.00,,,0.00,weatherlink.com 1.10,2013-06-20 07:11:00,
2013-06-20 00:26:00,41.6,36.0,30.06,NNW,346,0.0,2.0,81,0.00,,,0.00,weatherlink.com 1.10,2013-06-20 07:26:00,
2013-06-20 00:41:00,40.8,36.0,30.06,NNW,346,0.0,0.0,82,0.00,,,0.00,weatherlink.com 1.10,2013-06-20 07:41:00,
2013-06-20 00:56:00,40.0,36.0,30.06,NNW,346,0.0,0.0,84,0.00,,,0.00,weatherlink.com 1.10,2013-06-20 07:56:00,
2013-06-20 01:11:00,39.1,35.0,30.06,NNW,346,0.0,1.0,85,0.00,,,0.00,weatherlink.com 1.10,2013-06-20 08:11:00,
2013-06-20 01:26:00,38.7,35.0,30.06,NNW,346,0.0,1.0,87,0.00,,,0.00,weatherlink.com 1.10,2013-06-20 08:26:00,
2013-06-20 01:41:00,38.7,35.0,30.06,NNW,346,1.0,3.0,86,0.00,,,0.00,weatherlink.com 1.10,2013-06-20 08:41:00,
2013-06-20 01:56:00,39.0,35.0,30.06,NNW,346,1.0,3.0,85,0.00,,,0.00,weatherlink.com 1.10,2013-06-20 08:56:00,
2013-06-20 02:11:00,38.9,35.0,30.06,NNW,346,1.0,3.0,85,0.00,,,0.00,weatherlink.com 1.10,2013-06-20 09:11:00,
2013-06-20 02:26:00,38.4,34.0,30.07,NNW,346,2.0,3.0,85,0.00,,,0.00,weatherlink.com 1.10,2013-06-20 09:26:00,
2013-06-20 02:41:00,37.6,34.0,30.07,NNW,346,0.0,1.0,85,0.00,,,0.00,weatherlink.com 1.10,2013-06-20 09:41:00,
2013-06-20 02:56:00,36.4,33.0,30.07,NNW,346,0.0,0.0,87,0.00,,,0.00,weatherlink.com 1.10,2013-06-20 09:56:00,
2013-06-20 03:11:00,35.8,33.0,30.07,NNW,346,0.0,1.0,88,0.00,,,0.00,weatherlink.com 1.10,2013-06-20 10:11:00,
2013-06-20 03:26:00,35.2,32.0,30.07,NNW,346,0.0,1.0,88,0.00,,,0.00,weatherlink.com 1.10,2013-06-20 10:26:00,
2013-06-20 03:41:00,34.6,32.0,30.06,NNW,346,0.0,0.0,89,0.00,,,0.00,weatherlink.com 1.10,2013-06-20 10:41:00,
2013-06-20 03:56:00,34.2,32.0,30.05,NNW,346,1.0,2.0,90,0.00,,,0.00,weatherlink.com 1.10,2013-06-20 10:56:00,
2013-06-20 04:11:00,33.9,31.0,30.05,NNW,346,1.0,1.0,90,0.00,,,0.00,weatherlink.com 1.10,2013-06-20 11:11:00,
2013-06-20 04:26:00,33.7,31.0,30.05,NNW,346,1.0,1.0,91,0.00,,,0.00,weatherlink.com 1.10,2013-06-20 11:26:00,
2013-06-20 04:41:00,33.8,32.0,30.05,NNW,346,0.0,2.0,92,0.00,,,0.00,weatherlink.com 1.10,2013-06-20 11:41:00,
2013-06-20 04:56:00,35.0,33.0,30.05,NNW,345,1.0,5.0,93,0.00,,,0.00,weatherlink.com 1.10,2013-06-20 11:56:00,
2013-06-20 05:11:00,37.5,35.0,30.05,SSW,194,3.0,8.0,89,0.00,,,0.00,weatherlink.com 1.10,2013-06-20 12:11:00,
2013-06-20 05:27:00,38.7,35.0,30.05,South,177,6.0,7.0,85,0.00,,,0.00,weatherlink.com 1.10,2013-06-20 12:27:00,
2013-06-20 05:42:00,39.1,34.0,30.05,South,170,2.0,10.0,83,0.00,,,0.00,weatherlink.com 1.10,2013-06-20 12:42:00,
2013-06-20 05:57:00,39.3,35.0,30.05,South,177,1.0,6.0,83,0.00,,,0.00,weatherlink.com 1.10,2013-06-20 12:57:00,
2013-06-20 06:12:00,39.5,34.0,30.05,South,190,1.0,7.0,81,0.00,,,0.00,weatherlink.com 1.10,2013-06-20 13:12:00,
2013-06-20 06:27:00,39.7,34.0,30.05,SSW,198,2.0,5.0,81,0.00,,,0.00,weatherlink.com 1.10,2013-06-20 13:27:00,
2013-06-20 06:42:00,40.0,35.0,30.05,SSW,198,0.0,3.0,81,0.00,,,0.00,weatherlink.com 1.10,2013-06-20 13:42:00,
2013-06-20 06:57:00,41.0,36.0,30.06,SW,225,2.0,6.0,82,0.00,,,0.00,weatherlink.com 1.10,2013-06-20 13:57:00,
2013-06-20 07:12:00,42.1,37.0,30.06,SW,226,0.0,5.0,81,0.00,,,0.00,weatherlink.com 1.10,2013-06-20 14:12:00,
2013-06-20 07:27:00,43.3,37.0,30.06,SW,230,4.0,4.0,78,0.00,,,0.00,weatherlink.com 1.10,2013-06-20 14:27:00,
2013-06-20 07:42:00,44.5,37.0,30.06,SW,230,1.0,3.0,74,0.00,,,0.00,weatherlink.com 1.10,2013-06-20 14:42:00,
2013-06-20 07:57:00,45.2,37.0,30.06,SW,231,3.0,6.0,74,0.00,,,0.00,weatherlink.com 1.10,2013-06-20 14:57:00,
2013-06-20 08:12:00,45.7,36.0,30.07,SW,230,2.0,4.0,70,0.00,,,0.00,weatherlink.com 1.10,2013-06-20 15:12:00,
2013-06-20 08:27:00,46.2,37.0,30.07,SW,225,1.0,5.0,69,0.00,,,0.00,weatherlink.com 1.10,2013-06-20 15:27:00,
2013-06-20 08:42:00,47.1,37.0,30.08,SW,222,1.0,5.0,67,0.00,,,0.00,weatherlink.com 1.10,2013-06-20 15:42:00,
2013-06-20 08:57:00,47.3,36.0,30.07,SW,222,1.0,4.0,66,0.00,,,0.00,weatherlink.com 1.10,2013-06-20 15:57:00,
2013-06-20 09:12:00,48.6,37.0,30.07,SE,138,5.0,6.0,65,0.00,,,0.00,weatherlink.com 1.10,2013-06-20 16:12:00,
2013-06-20 09:27:00,49.1,36.0,30.06,SE,137,1.0,9.0,61,0.00,,,0.00,weatherlink.com 1.10,2013-06-20 16:27:00,
2013-06-20 09:42:00,50.4,35.0,30.06,SSE,161,4.0,9.0,56,0.00,,,0.00,weatherlink.com 1.10,2013-06-20 16:42:00,
2013-06-20 09:57:00,50.9,35.0,30.06,ESE,121,5.0,7.0,56,0.00,,,0.00,weatherlink.com 1.10,2013-06-20 16:57:00,
2013-06-20 10:12:00,51.3,34.0,30.06,SSE,163,1.0,9.0,52,0.00,,,0.00,weatherlink.com 1.10,2013-06-20 17:12:00,
2013-06-20 10:27:00,52.1,34.0,30.06,SE,132,1.0,6.0,51,0.00,,,0.00,weatherlink.com 1.10,2013-06-20 17:27:00,
2013-06-20 10:42:00,52.4,34.0,30.06,South,190,2.0,6.0,50,0.00,,,0.00,weatherlink.com 1.10,2013-06-20 17:42:00,
2013-06-20 10:57:00,53.4,34.0,30.06,SSW,209,0.0,7.0,48,0.00,,,0.00,weatherlink.com 1.10,2013-06-20 17:57:00,
2013-06-20 11:12:00,54.6,35.0,30.06,West,279,3.0,7.0,47,0.00,,,0.00,weatherlink.com 1.10,2013-06-20 18:12:00,
2013-06-20 11:27:00,54.5,34.0,30.06,NNW,338,4.0,8.0,47,0.00,,,0.00,weatherlink.com 1.10,2013-06-20 18:27:00,
2013-06-20 11:42:00,54.5,35.0,30.07,NNW,346,6.0,9.0,48,0.00,,,0.00,weatherlink.com 1.10,2013-06-20 18:42:00,
2013-06-20 11:57:00,54.7,37.0,30.06,WNW,284,4.0,11.0,51,0.00,,,0.00,weatherlink.com 1.10,2013-06-20 18:57:00,
2013-06-20 12:12:00,56.1,36.0,30.06,North,355,8.0,11.0,48,0.00,,,0.00,weatherlink.com 1.10,2013-06-20 19:12:00,
2013-06-20 12:27:00,57.0,37.0,30.06,WNW,298,4.0,6.0,48,0.00,,,0.00,weatherlink.com 1.10,2013-06-20 19:27:00,
2013-06-20 12:42:00,58.4,37.0,30.06,NNW,338,7.0,9.0,45,0.00,,,0.00,weatherlink.com 1.10,2013-06-20 19:42:00,
2013-06-20 12:57:00,58.0,35.0,30.05,WNW,290,5.0,6.0,42,0.00,,,0.00,weatherlink.com 1.10,2013-06-20 19:57:00,
2013-06-20 13:12:00,58.1,36.0,30.05,NNW,346,5.0,11.0,44,0.00,,,0.00,weatherlink.com 1.10,2013-06-20 20:12:00,
2013-06-20 13:27:00,57.9,35.0,30.04,North,11,3.0,10.0,43,0.00,,,0.00,weatherlink.com 1.10,2013-06-20 20:27:00,
2013-06-20 13:42:00,57.8,35.0,30.04,West,281,1.0,8.0,43,0.00,,,0.00,weatherlink.com 1.10,2013-06-20 20:42:00,
2013-06-20 13:58:00,57.8,36.0,30.04,NW,320,5.0,8.0,44,0.00,,,0.00,weatherlink.com 1.10,2013-06-20 20:58:00,
2013-06-20 14:13:00,58.5,35.0,30.04,WNW,284,1.0,5.0,42,0.00,,,0.00,weatherlink.com 1.10,2013-06-20 21:13:00,
2013-06-20 14:28:00,58.3,36.0,30.03,WNW,292,2.0,8.0,43,0.00,,,0.00,weatherlink.com 1.10,2013-06-20 21:28:00,
2013-06-20 14:43:00,59.2,36.0,30.03,NNW,331,4.0,11.0,42,0.00,,,0.00,weatherlink.com 1.10,2013-06-20 21:43:00,
2013-06-20 14:58:00,60.1,35.0,30.03,NNW,335,7.0,8.0,39,0.00,,,0.00,weatherlink.com 1.10,2013-06-20 21:58:00,
2013-06-20 15:13:00,60.1,36.0,30.03,WNW,286,6.0,9.0,40,0.00,,,0.00,weatherlink.com 1.10,2013-06-20 22:13:00,
2013-06-20 15:28:00,61.6,35.0,30.03,NW,325,5.0,11.0,37,0.00,,,0.00,weatherlink.com 1.10,2013-06-20 22:28:00,
2013-06-20 15:43:00,60.2,35.0,30.03,WNW,299,10.0,11.0,39,0.00,,,0.00,weatherlink.com 1.10,2013-06-20 22:43:00,
2013-06-20 15:58:00,59.8,36.0,30.03,NW,311,4.0,8.0,41,0.00,,,0.00,weatherlink.com 1.10,2013-06-20 22:58:00,
2013-06-20 16:13:00,61.7,37.0,30.03,West,265,6.0,13.0,40,0.00,,,0.00,weatherlink.com 1.10,2013-06-20 23:13:00,
2013-06-20 16:28:00,60.6,37.0,30.04,West,267,5.0,15.0,42,0.00,,,0.00,weatherlink.com 1.10,2013-06-20 23:28:00,
2013-06-20 16:43:00,61.3,37.0,30.04,NNW,342,9.0,13.0,40,0.00,,,0.00,weatherlink.com 1.10,2013-06-20 23:43:00,
2013-06-20 16:58:00,61.3,36.0,30.04,NW,322,8.0,16.0,39,0.00,,,0.00,weatherlink.com 1.10,2013-06-20 23:58:00,
2013-06-20 17:13:00,60.7,35.0,30.04,NW,322,7.0,17.0,38,0.00,,,0.00,weatherlink.com 1.10,2013-06-21 00:13:00,
2013-06-20 17:28:00,60.1,37.0,30.04,NW,313,13.0,15.0,42,0.00,,,0.00,weatherlink.com 1.10,2013-06-21 00:28:00,
2013-06-20 17:43:00,59.4,36.0,30.04,NW,311,11.0,16.0,42,0.00,,,0.00,weatherlink.com 1.10,2013-06-21 00:43:00,
2013-06-20 17:58:00,59.3,36.0,30.04,West,281,11.0,16.0,42,0.00,,,0.00,weatherlink.com 1.10,2013-06-21 00:58:00,
2013-06-20 18:13:00,58.6,37.0,30.04,WNW,301,8.0,15.0,44,0.00,,,0.00,weatherlink.com 1.10,2013-06-21 01:13:00,
2013-06-20 18:28:00,58.6,37.0,30.04,NNW,338,5.0,15.0,44,0.00,,,0.00,weatherlink.com 1.10,2013-06-21 01:28:00,
2013-06-20 18:43:00,58.1,37.0,30.04,NNW,339,5.0,18.0,46,0.00,,,0.00,weatherlink.com 1.10,2013-06-21 01:43:00,
2013-06-20 18:58:00,57.4,37.0,30.04,NW,322,6.0,16.0,46,0.00,,,0.00,weatherlink.com 1.10,2013-06-21 01:58:00,
2013-06-20 19:13:00,57.1,38.0,30.04,NW,326,10.0,16.0,49,0.00,,,0.00,weatherlink.com 1.10,2013-06-21 02:13:00,
2013-06-20 19:28:00,56.6,39.0,30.05,NNW,341,7.0,12.0,52,0.00,,,0.00,weatherlink.com 1.10,2013-06-21 02:28:00,
2013-06-20 19:43:00,55.6,39.0,30.05,NNW,336,9.0,13.0,54,0.00,,,0.00,weatherlink.com 1.10,2013-06-21 02:43:00,
2013-06-20 19:58:00,54.8,39.0,30.06,NW,321,6.0,11.0,55,0.00,,,0.00,weatherlink.com 1.10,2013-06-21 02:58:00,
2013-06-20 20:13:00,53.9,39.0,30.07,NNW,338,4.0,14.0,57,0.00,,,0.00,weatherlink.com 1.10,2013-06-21 03:13:00,
2013-06-20 20:28:00,53.1,39.0,30.07,NNW,327,1.0,12.0,60,0.00,,,0.00,weatherlink.com 1.10,2013-06-21 03:28:00,
2013-06-20 20:43:00,52.4,40.0,30.07,NW,315,5.0,8.0,62,0.00,,,0.00,weatherlink.com 1.10,2013-06-21 03:43:00,
2013-06-20 20:58:00,51.7,39.0,30.07,West,275,2.0,6.0,63,0.00,,,0.00,weatherlink.com 1.10,2013-06-21 03:58:00,
2013-06-20 21:13:00,51.0,39.0,30.07,West,271,4.0,8.0,64,0.00,,,0.00,weatherlink.com 1.10,2013-06-21 04:13:00,
2013-06-20 21:28:00,50.4,39.0,30.08,West,276,3.0,5.0,64,0.00,,,0.00,weatherlink.com 1.10,2013-06-21 04:28:00,
2013-06-20 21:43:00,49.7,38.0,30.09,West,276,2.0,5.0,65,0.00,,,0.00,weatherlink.com 1.10,2013-06-21 04:43:00,
2013-06-20 21:58:00,49.2,38.0,30.09,West,277,1.0,4.0,66,0.00,,,0.00,weatherlink.com 1.10,2013-06-21 04:58:00,
2013-06-20 22:13:00,48.7,39.0,30.10,West,280,1.0,5.0,68,0.00,,,0.00,weatherlink.com 1.10,2013-06-21 05:13:00,
2013-06-20 22:28:00,48.2,38.0,30.10,West,280,2.0,5.0,69,0.00,,,0.00,weatherlink.com 1.10,2013-06-21 05:28:00,
2013-06-20 22:43:00,47.7,38.0,30.10,West,280,3.0,4.0,70,0.00,,,0.00,weatherlink.com 1.10,2013-06-21 05:43:00,
2013-06-20 22:58:00,47.2,38.0,30.10,West,280,0.0,3.0,71,0.00,,,0.00,weatherlink.com 1.10,2013-06-21 05:58:00,
2013-06-20 23:13:00,46.2,38.0,30.11,West,280,0.0,1.0,74,0.00,,,0.00,weatherlink.com 1.10,2013-06-21 06:13:00,
2013-06-20 23:28:00,45.3,38.0,30.11,West,280,1.0,2.0,76,0.00,,,0.00,weatherlink.com 1.10,2013-06-21 06:28:00,
2013-06-20 23:43:00,44.4,38.0,30.11,West,280,0.0,1.0,79,0.00,,,0.00,weatherlink.com 1.10,2013-06-21 06:43:00,
2013-06-20 23:58:00,43.8,38.0,30.11,West,280,1.0,2.0,81,0.00,,,0.00,weatherlink.com 1.10,2013-06-21 06:58:00,